sensor_id;sensor_type;location;lat;lon;timestamp;P1;durP1;ratioP1;P2;durP2;ratioP2
22060;SDS011;11194;48.092;-1.382;2024-02-23T00:01:43;174.45;;;168.15;;
22060;SDS011;11194;48.092;-1.382;2024-02-23T00:04:09;167.73;;;161.65;;
22060;SDS011;11194;48.092;-1.382;2024-02-23T00:06:35;174.70;;;168.38;;
22060;SDS011;11194;48.092;-1.382;2024-02-23T00:09:01;176.52;;;170.18;;
22060;SDS011;11194;48.092;-1.382;2024-02-23T00:11:27;174.88;;;168.52;;
22060;SDS011;11194;48.092;-1.382;2024-02-23T00:13:54;189.43;;;182.57;;
22060;SDS011;11194;48.092;-1.382;2024-02-23T00:16:20;203.52;;;196.13;;
22060;SDS011;11194;48.092;-1.382;2024-02-23T00:18:46;218.75;;;210.80;;
22060;SDS011;11194;48.092;-1.382;2024-02-23T00:21:12;215.35;;;207.63;;
22060;SDS011;11194;48.092;-1.382;2024-02-23T00:23:38;203.95;;;196.52;;
22060;SDS011;11194;48.092;-1.382;2024-02-23T00:26:04;209.55;;;201.90;;
22060;SDS011;11194;48.092;-1.382;2024-02-23T00:28:30;214.32;;;206.60;;
22060;SDS011;11194;48.092;-1.382;2024-02-23T00:30:56;217.52;;;209.70;;
22060;SDS011;11194;48.092;-1.382;2024-02-23T00:33:22;216.00;;;208.13;;
22060;SDS011;11194;48.092;-1.382;2024-02-23T00:35:48;210.88;;;203.13;;
22060;SDS011;11194;48.092;-1.382;2024-02-23T00:38:14;225.38;;;217.05;;
22060;SDS011;11194;48.092;-1.382;2024-02-23T00:40:40;213.63;;;205.80;;
22060;SDS011;11194;48.092;-1.382;2024-02-23T00:43:06;213.20;;;205.43;;
22060;SDS011;11194;48.092;-1.382;2024-02-23T00:45:32;213.38;;;205.60;;
22060;SDS011;11194;48.092;-1.382;2024-02-23T00:47:59;222.48;;;214.35;;
22060;SDS011;11194;48.092;-1.382;2024-02-23T00:50:25;224.32;;;216.10;;
22060;SDS011;11194;48.092;-1.382;2024-02-23T00:52:52;226.35;;;218.02;;
22060;SDS011;11194;48.092;-1.382;2024-02-23T00:55:18;229.15;;;220.70;;
22060;SDS011;11194;48.092;-1.382;2024-02-23T00:57:44;231.07;;;222.52;;
22060;SDS011;11194;48.092;-1.382;2024-02-23T01:00:10;229.30;;;220.77;;
22060;SDS011;11194;48.092;-1.382;2024-02-23T01:02:37;240.77;;;231.75;;
22060;SDS011;11194;48.092;-1.382;2024-02-23T01:05:03;232.18;;;223.57;;
22060;SDS011;11194;48.092;-1.382;2024-02-23T01:07:30;223.20;;;214.93;;
22060;SDS011;11194;48.092;-1.382;2024-02-23T01:09:56;227.32;;;218.98;;
22060;SDS011;11194;48.092;-1.382;2024-02-23T01:12:23;227.85;;;219.38;;
22060;SDS011;11194;48.092;-1.382;2024-02-23T01:14:49;229.00;;;220.55;;
22060;SDS011;11194;48.092;-1.382;2024-02-23T01:17:15;227.82;;;219.40;;
22060;SDS011;11194;48.092;-1.382;2024-02-23T01:19:42;225.05;;;216.70;;
22060;SDS011;11194;48.092;-1.382;2024-02-23T01:22:09;217.90;;;209.95;;
22060;SDS011;11194;48.092;-1.382;2024-02-23T01:24:35;200.57;;;193.35;;
22060;SDS011;11194;48.092;-1.382;2024-02-23T01:27:01;182.52;;;175.90;;
22060;SDS011;11194;48.092;-1.382;2024-02-23T01:29:27;172.55;;;166.38;;
22060;SDS011;11194;48.092;-1.382;2024-02-23T01:31:53;157.57;;;151.88;;
22060;SDS011;11194;48.092;-1.382;2024-02-23T01:34:20;141.07;;;135.95;;
22060;SDS011;11194;48.092;-1.382;2024-02-23T01:36:46;136.93;;;131.93;;
22060;SDS011;11194;48.092;-1.382;2024-02-23T01:39:12;136.32;;;131.35;;
22060;SDS011;11194;48.092;-1.382;2024-02-23T01:41:38;138.90;;;133.85;;
22060;SDS011;11194;48.092;-1.382;2024-02-23T01:44:05;139.32;;;134.27;;
22060;SDS011;11194;48.092;-1.382;2024-02-23T01:46:31;138.75;;;133.73;;
22060;SDS011;11194;48.092;-1.382;2024-02-23T01:48:58;142.90;;;137.73;;
22060;SDS011;11194;48.092;-1.382;2024-02-23T01:51:24;153.20;;;147.68;;
22060;SDS011;11194;48.092;-1.382;2024-02-23T01:53:51;149.05;;;143.68;;
22060;SDS011;11194;48.092;-1.382;2024-02-23T01:56:17;152.20;;;146.68;;
22060;SDS011;11194;48.092;-1.382;2024-02-23T01:58:44;166.48;;;160.50;;
22060;SDS011;11194;48.092;-1.382;2024-02-23T02:01:10;164.00;;;158.07;;
22060;SDS011;11194;48.092;-1.382;2024-02-23T02:03:38;178.20;;;171.85;;
22060;SDS011;11194;48.092;-1.382;2024-02-23T02:06:05;162.68;;;156.80;;
22060;SDS011;11194;48.092;-1.382;2024-02-23T02:08:32;163.77;;;157.90;;
22060;SDS011;11194;48.092;-1.382;2024-02-23T02:10:59;163.68;;;157.77;;
22060;SDS011;11194;48.092;-1.382;2024-02-23T02:13:27;153.55;;;147.98;;
22060;SDS011;11194;48.092;-1.382;2024-02-23T02:15:53;154.70;;;149.07;;
22060;SDS011;11194;48.092;-1.382;2024-02-23T02:18:19;166.65;;;160.68;;
22060;SDS011;11194;48.092;-1.382;2024-02-23T02:20:53;157.15;;;151.50;;
22060;SDS011;11194;48.092;-1.382;2024-02-23T02:23:19;157.13;;;151.45;;
22060;SDS011;11194;48.092;-1.382;2024-02-23T02:25:51;159.38;;;153.63;;
22060;SDS011;11194;48.092;-1.382;2024-02-23T02:28:18;159.95;;;154.20;;
22060;SDS011;11194;48.092;-1.382;2024-02-23T02:30:44;161.00;;;155.20;;
22060;SDS011;11194;48.092;-1.382;2024-02-23T02:33:10;176.85;;;170.55;;
22060;SDS011;11194;48.092;-1.382;2024-02-23T02:35:36;172.80;;;166.65;;
22060;SDS011;11194;48.092;-1.382;2024-02-23T02:38:02;173.30;;;167.13;;
22060;SDS011;11194;48.092;-1.382;2024-02-23T02:40:28;161.55;;;155.73;;
22060;SDS011;11194;48.092;-1.382;2024-02-23T02:42:54;173.02;;;166.82;;
22060;SDS011;11194;48.092;-1.382;2024-02-23T02:45:20;187.45;;;180.80;;
22060;SDS011;11194;48.092;-1.382;2024-02-23T02:47:46;197.02;;;190.02;;
22060;SDS011;11194;48.092;-1.382;2024-02-23T02:50:12;204.00;;;196.75;;
22060;SDS011;11194;48.092;-1.382;2024-02-23T02:52:38;204.55;;;197.23;;
22060;SDS011;11194;48.092;-1.382;2024-02-23T02:55:04;217.98;;;210.13;;
22060;SDS011;11194;48.092;-1.382;2024-02-23T02:57:31;216.45;;;208.63;;
22060;SDS011;11194;48.092;-1.382;2024-02-23T02:59:57;232.43;;;223.93;;
22060;SDS011;11194;48.092;-1.382;2024-02-23T03:02:23;247.82;;;238.70;;
22060;SDS011;11194;48.092;-1.382;2024-02-23T03:04:49;248.50;;;239.27;;
22060;SDS011;11194;48.092;-1.382;2024-02-23T03:07:16;225.95;;;217.60;;
22060;SDS011;11194;48.092;-1.382;2024-02-23T03:09:42;251.95;;;242.40;;
22060;SDS011;11194;48.092;-1.382;2024-02-23T03:12:08;270.30;;;259.88;;
22060;SDS011;11194;48.092;-1.382;2024-02-23T03:14:34;267.15;;;256.85;;
22060;SDS011;11194;48.092;-1.382;2024-02-23T03:17:02;268.08;;;257.58;;
22060;SDS011;11194;48.092;-1.382;2024-02-23T03:19:28;279.42;;;268.10;;
22060;SDS011;11194;48.092;-1.382;2024-02-23T03:21:54;286.10;;;274.40;;
22060;SDS011;11194;48.092;-1.382;2024-02-23T03:24:20;294.38;;;282.50;;
22060;SDS011;11194;48.092;-1.382;2024-02-23T03:26:47;316.30;;;303.38;;
22060;SDS011;11194;48.092;-1.382;2024-02-23T03:29:13;312.85;;;299.85;;
22060;SDS011;11194;48.092;-1.382;2024-02-23T03:31:39;304.38;;;291.73;;
22060;SDS011;11194;48.092;-1.382;2024-02-23T03:34:05;304.02;;;291.45;;
22060;SDS011;11194;48.092;-1.382;2024-02-23T03:36:31;304.75;;;292.02;;
22060;SDS011;11194;48.092;-1.382;2024-02-23T03:38:57;312.67;;;299.48;;
22060;SDS011;11194;48.092;-1.382;2024-02-23T03:41:23;314.08;;;300.83;;
22060;SDS011;11194;48.092;-1.382;2024-02-23T03:43:49;311.67;;;298.38;;
22060;SDS011;11194;48.092;-1.382;2024-02-23T03:46:15;311.13;;;297.83;;
22060;SDS011;11194;48.092;-1.382;2024-02-23T03:48:42;298.92;;;286.30;;
22060;SDS011;11194;48.092;-1.382;2024-02-23T03:51:09;285.35;;;273.52;;
22060;SDS011;11194;48.092;-1.382;2024-02-23T03:53:35;298.50;;;286.17;;
22060;SDS011;11194;48.092;-1.382;2024-02-23T03:56:01;290.73;;;278.67;;
22060;SDS011;11194;48.092;-1.382;2024-02-23T03:58:27;288.48;;;276.73;;
22060;SDS011;11194;48.092;-1.382;2024-02-23T04:00:53;292.67;;;280.75;;
22060;SDS011;11194;48.092;-1.382;2024-02-23T04:03:20;287.15;;;275.50;;
22060;SDS011;11194;48.092;-1.382;2024-02-23T04:05:46;287.95;;;276.33;;
22060;SDS011;11194;48.092;-1.382;2024-02-23T04:08:12;281.08;;;269.77;;
22060;SDS011;11194;48.092;-1.382;2024-02-23T04:10:38;286.23;;;274.65;;
22060;SDS011;11194;48.092;-1.382;2024-02-23T04:13:04;293.85;;;281.95;;
22060;SDS011;11194;48.092;-1.382;2024-02-23T04:15:30;289.42;;;277.77;;
22060;SDS011;11194;48.092;-1.382;2024-02-23T04:17:56;297.30;;;285.35;;
22060;SDS011;11194;48.092;-1.382;2024-02-23T04:20:22;285.52;;;274.05;;
22060;SDS011;11194;48.092;-1.382;2024-02-23T04:22:48;280.30;;;269.02;;
22060;SDS011;11194;48.092;-1.382;2024-02-23T04:25:14;278.67;;;267.50;;
22060;SDS011;11194;48.092;-1.382;2024-02-23T04:27:40;282.98;;;271.65;;
22060;SDS011;11194;48.092;-1.382;2024-02-23T04:30:06;290.45;;;278.83;;
22060;SDS011;11194;48.092;-1.382;2024-02-23T04:32:33;289.55;;;278.05;;
22060;SDS011;11194;48.092;-1.382;2024-02-23T04:34:59;290.15;;;278.45;;
22060;SDS011;11194;48.092;-1.382;2024-02-23T04:37:25;294.63;;;282.67;;
22060;SDS011;11194;48.092;-1.382;2024-02-23T04:39:51;289.35;;;277.73;;
22060;SDS011;11194;48.092;-1.382;2024-02-23T04:42:17;288.27;;;276.50;;
22060;SDS011;11194;48.092;-1.382;2024-02-23T04:44:43;292.20;;;280.25;;
22060;SDS011;11194;48.092;-1.382;2024-02-23T04:47:09;293.95;;;281.95;;
22060;SDS011;11194;48.092;-1.382;2024-02-23T04:49:35;288.65;;;277.15;;
22060;SDS011;11194;48.092;-1.382;2024-02-23T04:52:01;278.00;;;266.77;;
22060;SDS011;11194;48.092;-1.382;2024-02-23T04:54:27;285.10;;;273.33;;
22060;SDS011;11194;48.092;-1.382;2024-02-23T04:56:53;290.42;;;278.05;;
22060;SDS011;11194;48.092;-1.382;2024-02-23T04:59:19;284.33;;;272.55;;
22060;SDS011;11194;48.092;-1.382;2024-02-23T05:01:45;294.02;;;282.27;;
22060;SDS011;11194;48.092;-1.382;2024-02-23T05:04:12;287.67;;;276.20;;
22060;SDS011;11194;48.092;-1.382;2024-02-23T05:06:38;277.38;;;266.17;;
22060;SDS011;11194;48.092;-1.382;2024-02-23T05:09:05;277.67;;;266.63;;
22060;SDS011;11194;48.092;-1.382;2024-02-23T05:11:34;282.02;;;270.75;;
22060;SDS011;11194;48.092;-1.382;2024-02-23T05:14:00;282.75;;;271.35;;
22060;SDS011;11194;48.092;-1.382;2024-02-23T05:16:26;288.15;;;276.40;;
22060;SDS011;11194;48.092;-1.382;2024-02-23T05:18:52;304.42;;;291.80;;
22060;SDS011;11194;48.092;-1.382;2024-02-23T05:21:18;289.02;;;277.13;;
22060;SDS011;11194;48.092;-1.382;2024-02-23T05:23:44;303.13;;;290.80;;
22060;SDS011;11194;48.092;-1.382;2024-02-23T05:26:11;309.92;;;297.30;;
22060;SDS011;11194;48.092;-1.382;2024-02-23T05:28:37;306.45;;;293.67;;
22060;SDS011;11194;48.092;-1.382;2024-02-23T05:31:03;323.70;;;310.33;;
22060;SDS011;11194;48.092;-1.382;2024-02-23T05:33:29;315.95;;;302.92;;
22060;SDS011;11194;48.092;-1.382;2024-02-23T05:35:56;328.52;;;314.70;;
22060;SDS011;11194;48.092;-1.382;2024-02-23T05:38:22;311.00;;;297.95;;
22060;SDS011;11194;48.092;-1.382;2024-02-23T05:40:48;317.50;;;304.05;;
22060;SDS011;11194;48.092;-1.382;2024-02-23T05:43:14;318.17;;;305.15;;
22060;SDS011;11194;48.092;-1.382;2024-02-23T05:45:40;322.23;;;308.95;;
22060;SDS011;11194;48.092;-1.382;2024-02-23T05:48:06;327.42;;;313.95;;
22060;SDS011;11194;48.092;-1.382;2024-02-23T05:50:32;329.77;;;316.17;;
22060;SDS011;11194;48.092;-1.382;2024-02-23T05:52:58;334.42;;;320.15;;
22060;SDS011;11194;48.092;-1.382;2024-02-23T05:55:24;344.08;;;328.83;;
22060;SDS011;11194;48.092;-1.382;2024-02-23T05:57:50;344.50;;;329.45;;
22060;SDS011;11194;48.092;-1.382;2024-02-23T06:00:17;347.25;;;332.33;;
22060;SDS011;11194;48.092;-1.382;2024-02-23T06:02:46;352.27;;;337.15;;
22060;SDS011;11194;48.092;-1.382;2024-02-23T06:05:12;362.20;;;346.25;;
22060;SDS011;11194;48.092;-1.382;2024-02-23T06:07:38;368.40;;;351.83;;
22060;SDS011;11194;48.092;-1.382;2024-02-23T06:10:05;372.73;;;355.98;;
22060;SDS011;11194;48.092;-1.382;2024-02-23T06:12:31;369.40;;;353.02;;
22060;SDS011;11194;48.092;-1.382;2024-02-23T06:14:57;368.65;;;352.30;;
22060;SDS011;11194;48.092;-1.382;2024-02-23T06:17:23;369.50;;;353.25;;
22060;SDS011;11194;48.092;-1.382;2024-02-23T06:19:50;347.10;;;332.15;;
22060;SDS011;11194;48.092;-1.382;2024-02-23T06:22:18;340.27;;;325.77;;
22060;SDS011;11194;48.092;-1.382;2024-02-23T06:24:46;342.33;;;327.60;;
22060;SDS011;11194;48.092;-1.382;2024-02-23T06:27:12;344.65;;;330.02;;
22060;SDS011;11194;48.092;-1.382;2024-02-23T06:29:38;329.40;;;315.38;;
22060;SDS011;11194;48.092;-1.382;2024-02-23T06:32:04;341.45;;;327.00;;
22060;SDS011;11194;48.092;-1.382;2024-02-23T06:34:30;337.23;;;322.75;;
22060;SDS011;11194;48.092;-1.382;2024-02-23T06:36:57;329.35;;;315.02;;
22060;SDS011;11194;48.092;-1.382;2024-02-23T06:39:23;324.40;;;310.42;;
22060;SDS011;11194;48.092;-1.382;2024-02-23T06:41:49;323.58;;;309.85;;
22060;SDS011;11194;48.092;-1.382;2024-02-23T06:44:15;331.77;;;317.67;;
22060;SDS011;11194;48.092;-1.382;2024-02-23T06:46:41;330.15;;;315.77;;
22060;SDS011;11194;48.092;-1.382;2024-02-23T06:49:09;331.60;;;318.08;;
22060;SDS011;11194;48.092;-1.382;2024-02-23T06:51:35;331.77;;;318.23;;
22060;SDS011;11194;48.092;-1.382;2024-02-23T06:54:01;319.77;;;306.38;;
22060;SDS011;11194;48.092;-1.382;2024-02-23T06:56:28;328.13;;;314.55;;
22060;SDS011;11194;48.092;-1.382;2024-02-23T06:58:54;314.02;;;301.05;;
22060;SDS011;11194;48.092;-1.382;2024-02-23T07:01:20;310.90;;;298.02;;
22060;SDS011;11194;48.092;-1.382;2024-02-23T07:03:46;319.70;;;306.75;;
22060;SDS011;11194;48.092;-1.382;2024-02-23T07:06:15;317.75;;;305.20;;
22060;SDS011;11194;48.092;-1.382;2024-02-23T07:08:43;312.88;;;300.23;;
22060;SDS011;11194;48.092;-1.382;2024-02-23T07:11:10;308.42;;;296.25;;
22060;SDS011;11194;48.092;-1.382;2024-02-23T07:13:36;315.67;;;303.05;;
22060;SDS011;11194;48.092;-1.382;2024-02-23T07:16:02;324.02;;;311.17;;
22060;SDS011;11194;48.092;-1.382;2024-02-23T07:18:28;311.30;;;298.88;;
22060;SDS011;11194;48.092;-1.382;2024-02-23T07:20:54;300.52;;;288.75;;
22060;SDS011;11194;48.092;-1.382;2024-02-23T07:23:20;294.50;;;282.95;;
22060;SDS011;11194;48.092;-1.382;2024-02-23T07:25:47;301.15;;;289.42;;
22060;SDS011;11194;48.092;-1.382;2024-02-23T07:28:15;298.55;;;287.05;;
22060;SDS011;11194;48.092;-1.382;2024-02-23T07:30:45;305.98;;;293.83;;
22060;SDS011;11194;48.092;-1.382;2024-02-23T07:33:11;294.13;;;282.35;;
22060;SDS011;11194;48.092;-1.382;2024-02-23T07:35:37;295.42;;;283.70;;
22060;SDS011;11194;48.092;-1.382;2024-02-23T07:38:03;303.00;;;291.08;;
22060;SDS011;11194;48.092;-1.382;2024-02-23T07:40:29;297.70;;;285.90;;
22060;SDS011;11194;48.092;-1.382;2024-02-23T07:42:57;304.80;;;292.73;;
22060;SDS011;11194;48.092;-1.382;2024-02-23T07:45:23;296.50;;;284.65;;
22060;SDS011;11194;48.092;-1.382;2024-02-23T07:47:49;285.15;;;274.02;;
22060;SDS011;11194;48.092;-1.382;2024-02-23T07:50:15;283.02;;;272.00;;
22060;SDS011;11194;48.092;-1.382;2024-02-23T07:52:43;282.02;;;271.05;;
22060;SDS011;11194;48.092;-1.382;2024-02-23T07:55:09;282.05;;;271.05;;
22060;SDS011;11194;48.092;-1.382;2024-02-23T07:57:35;269.27;;;258.90;;
22060;SDS011;11194;48.092;-1.382;2024-02-23T08:00:03;279.30;;;268.45;;
22060;SDS011;11194;48.092;-1.382;2024-02-23T08:02:29;266.13;;;256.13;;
22060;SDS011;11194;48.092;-1.382;2024-02-23T08:04:55;236.05;;;227.32;;
22060;SDS011;11194;48.092;-1.382;2024-02-23T08:07:21;247.68;;;238.43;;
22060;SDS011;11194;48.092;-1.382;2024-02-23T08:09:48;232.68;;;224.20;;
22060;SDS011;11194;48.092;-1.382;2024-02-23T08:12:14;238.60;;;229.93;;
22060;SDS011;11194;48.092;-1.382;2024-02-23T08:14:41;223.48;;;215.48;;
22060;SDS011;11194;48.092;-1.382;2024-02-23T08:17:08;213.45;;;205.90;;
22060;SDS011;11194;48.092;-1.382;2024-02-23T08:19:35;219.13;;;211.40;;
22060;SDS011;11194;48.092;-1.382;2024-02-23T08:22:01;191.27;;;184.50;;
22060;SDS011;11194;48.092;-1.382;2024-02-23T08:24:27;165.88;;;159.93;;
22060;SDS011;11194;48.092;-1.382;2024-02-23T08:26:53;166.07;;;160.18;;
22060;SDS011;11194;48.092;-1.382;2024-02-23T08:29:19;136.48;;;131.55;;
22060;SDS011;11194;48.092;-1.382;2024-02-23T08:31:46;136.85;;;131.90;;
22060;SDS011;11194;48.092;-1.382;2024-02-23T08:34:12;141.32;;;136.23;;
22060;SDS011;11194;48.092;-1.382;2024-02-23T08:36:38;133.60;;;128.77;;
22060;SDS011;11194;48.092;-1.382;2024-02-23T08:39:04;132.68;;;127.88;;
22060;SDS011;11194;48.092;-1.382;2024-02-23T08:41:30;118.60;;;114.28;;
22060;SDS011;11194;48.092;-1.382;2024-02-23T08:43:56;125.30;;;120.70;;
22060;SDS011;11194;48.092;-1.382;2024-02-23T08:46:22;102.15;;;98.35;;
22060;SDS011;11194;48.092;-1.382;2024-02-23T08:48:48;113.22;;;109.07;;
22060;SDS011;11194;48.092;-1.382;2024-02-23T08:51:14;105.95;;;102.05;;
22060;SDS011;11194;48.092;-1.382;2024-02-23T08:53:40;82.60;;;79.43;;
22060;SDS011;11194;48.092;-1.382;2024-02-23T08:56:07;88.05;;;84.75;;
22060;SDS011;11194;48.092;-1.382;2024-02-23T08:58:33;67.55;;;64.90;;
22060;SDS011;11194;48.092;-1.382;2024-02-23T09:00:59;75.63;;;72.72;;
22060;SDS011;11194;48.092;-1.382;2024-02-23T09:03:25;63.13;;;60.63;;
22060;SDS011;11194;48.092;-1.382;2024-02-23T09:05:51;70.68;;;67.90;;
22060;SDS011;11194;48.092;-1.382;2024-02-23T09:08:17;64.82;;;62.28;;
22060;SDS011;11194;48.092;-1.382;2024-02-23T09:10:43;72.35;;;69.55;;
22060;SDS011;11194;48.092;-1.382;2024-02-23T09:13:10;60.70;;;58.30;;
22060;SDS011;11194;48.092;-1.382;2024-02-23T09:15:36;76.78;;;73.80;;
22060;SDS011;11194;48.092;-1.382;2024-02-23T09:18:02;75.68;;;72.78;;
22060;SDS011;11194;48.092;-1.382;2024-02-23T09:20:28;69.47;;;66.75;;
22060;SDS011;11194;48.092;-1.382;2024-02-23T09:22:54;81.75;;;78.60;;
22060;SDS011;11194;48.092;-1.382;2024-02-23T09:25:20;51.40;;;49.35;;
22060;SDS011;11194;48.092;-1.382;2024-02-23T09:27:46;58.75;;;56.40;;
22060;SDS011;11194;48.092;-1.382;2024-02-23T09:30:13;64.53;;;61.97;;
22060;SDS011;11194;48.092;-1.382;2024-02-23T09:32:39;74.47;;;71.60;;
22060;SDS011;11194;48.092;-1.382;2024-02-23T09:35:05;63.35;;;60.85;;
22060;SDS011;11194;48.092;-1.382;2024-02-23T09:37:35;67.10;;;64.47;;
22060;SDS011;11194;48.092;-1.382;2024-02-23T09:40:04;66.20;;;63.63;;
22060;SDS011;11194;48.092;-1.382;2024-02-23T09:42:31;57.83;;;55.53;;
22060;SDS011;11194;48.092;-1.382;2024-02-23T09:44:58;41.63;;;39.92;;
22060;SDS011;11194;48.092;-1.382;2024-02-23T09:47:27;43.50;;;41.80;;
22060;SDS011;11194;48.092;-1.382;2024-02-23T09:49:54;40.88;;;39.25;;
22060;SDS011;11194;48.092;-1.382;2024-02-23T09:52:20;37.45;;;35.95;;
22060;SDS011;11194;48.092;-1.382;2024-02-23T09:54:47;38.60;;;37.05;;
22060;SDS011;11194;48.092;-1.382;2024-02-23T09:57:13;37.45;;;35.97;;
22060;SDS011;11194;48.092;-1.382;2024-02-23T09:59:39;36.28;;;34.85;;
22060;SDS011;11194;48.092;-1.382;2024-02-23T10:02:07;24.85;;;23.85;;
22060;SDS011;11194;48.092;-1.382;2024-02-23T10:04:36;19.95;;;19.15;;
22060;SDS011;11194;48.092;-1.382;2024-02-23T10:07:04;13.73;;;13.23;;
22060;SDS011;11194;48.092;-1.382;2024-02-23T10:09:30;15.27;;;14.68;;
22060;SDS011;11194;48.092;-1.382;2024-02-23T10:11:56;18.80;;;18.08;;
22060;SDS011;11194;48.092;-1.382;2024-02-23T10:14:22;16.20;;;15.60;;
22060;SDS011;11194;48.092;-1.382;2024-02-23T10:16:48;22.05;;;21.17;;
22060;SDS011;11194;48.092;-1.382;2024-02-23T10:19:19;23.38;;;22.48;;
22060;SDS011;11194;48.092;-1.382;2024-02-23T10:21:45;17.65;;;16.95;;
22060;SDS011;11194;48.092;-1.382;2024-02-23T10:24:12;10.02;;;9.63;;
22060;SDS011;11194;48.092;-1.382;2024-02-23T10:26:38;8.30;;;8.00;;
22060;SDS011;11194;48.092;-1.382;2024-02-23T10:29:04;7.68;;;7.38;;
22060;SDS011;11194;48.092;-1.382;2024-02-23T10:31:34;9.35;;;9.00;;
22060;SDS011;11194;48.092;-1.382;2024-02-23T10:34:07;9.68;;;9.27;;
22060;SDS011;11194;48.092;-1.382;2024-02-23T10:36:42;10.38;;;9.98;;
22060;SDS011;11194;48.092;-1.382;2024-02-23T10:39:10;10.93;;;10.52;;
22060;SDS011;11194;48.092;-1.382;2024-02-23T10:41:37;8.27;;;7.97;;
22060;SDS011;11194;48.092;-1.382;2024-02-23T10:44:05;13.30;;;12.80;;
22060;SDS011;11194;48.092;-1.382;2024-02-23T10:46:31;13.27;;;12.77;;
22060;SDS011;11194;48.092;-1.382;2024-02-23T10:48:58;15.77;;;15.18;;
22060;SDS011;11194;48.092;-1.382;2024-02-23T10:51:25;13.85;;;13.35;;
22060;SDS011;11194;48.092;-1.382;2024-02-23T10:53:51;15.60;;;15.00;;
22060;SDS011;11194;48.092;-1.382;2024-02-23T10:56:18;8.85;;;8.55;;
22060;SDS011;11194;48.092;-1.382;2024-02-23T10:58:44;6.90;;;6.63;;
22060;SDS011;11194;48.092;-1.382;2024-02-23T11:01:11;7.45;;;7.15;;
22060;SDS011;11194;48.092;-1.382;2024-02-23T11:03:38;10.52;;;10.13;;
22060;SDS011;11194;48.092;-1.382;2024-02-23T11:06:06;6.07;;;5.88;;
22060;SDS011;11194;48.092;-1.382;2024-02-23T11:08:33;8.07;;;7.78;;
22060;SDS011;11194;48.092;-1.382;2024-02-23T11:11:07;5.13;;;4.93;;
22060;SDS011;11194;48.092;-1.382;2024-02-23T11:13:34;4.75;;;4.55;;
22060;SDS011;11194;48.092;-1.382;2024-02-23T11:16:01;1.65;;;1.65;;
22060;SDS011;11194;48.092;-1.382;2024-02-23T11:18:28;2.58;;;2.47;;
22060;SDS011;11194;48.092;-1.382;2024-02-23T11:20:55;2.30;;;2.20;;
22060;SDS011;11194;48.092;-1.382;2024-02-23T11:23:24;1.55;;;1.55;;
22060;SDS011;11194;48.092;-1.382;2024-02-23T11:28:28;1.45;;;1.45;;
22060;SDS011;11194;48.092;-1.382;2024-02-23T11:30:54;1.30;;;1.30;;
22060;SDS011;11194;48.092;-1.382;2024-02-23T11:33:27;1.30;;;1.30;;
22060;SDS011;11194;48.092;-1.382;2024-02-23T11:35:53;1.48;;;1.48;;
22060;SDS011;11194;48.092;-1.382;2024-02-23T11:38:20;2.40;;;2.30;;
22060;SDS011;11194;48.092;-1.382;2024-02-23T11:40:47;3.50;;;3.40;;
22060;SDS011;11194;48.092;-1.382;2024-02-23T11:43:14;0.43;;;0.43;;
22060;SDS011;11194;48.092;-1.382;2024-02-23T11:45:40;0.40;;;0.40;;
22060;SDS011;11194;48.092;-1.382;2024-02-23T11:48:06;0.20;;;0.20;;
22060;SDS011;11194;48.092;-1.382;2024-02-23T11:50:32;0.20;;;0.20;;
22060;SDS011;11194;48.092;-1.382;2024-02-23T11:52:59;0.20;;;0.20;;
22060;SDS011;11194;48.092;-1.382;2024-02-23T11:55:26;0.10;;;0.10;;
22060;SDS011;11194;48.092;-1.382;2024-02-23T11:57:52;0.10;;;0.10;;
22060;SDS011;11194;48.092;-1.382;2024-02-23T12:00:18;0.10;;;0.10;;
22060;SDS011;11194;48.092;-1.382;2024-02-23T12:02:44;0.20;;;0.20;;
22060;SDS011;11194;48.092;-1.382;2024-02-23T12:05:13;0.30;;;0.30;;
22060;SDS011;11194;48.092;-1.382;2024-02-23T12:07:40;0.20;;;0.20;;
22060;SDS011;11194;48.092;-1.382;2024-02-23T12:10:06;0.20;;;0.20;;
22060;SDS011;11194;48.092;-1.382;2024-02-23T12:12:33;0.38;;;0.38;;
22060;SDS011;11194;48.092;-1.382;2024-02-23T12:14:59;0.50;;;0.50;;
22060;SDS011;11194;48.092;-1.382;2024-02-23T12:17:25;0.50;;;0.50;;
22060;SDS011;11194;48.092;-1.382;2024-02-23T12:19:58;0.70;;;0.70;;
22060;SDS011;11194;48.092;-1.382;2024-02-23T12:22:24;0.30;;;0.30;;
22060;SDS011;11194;48.092;-1.382;2024-02-23T12:24:50;0.47;;;0.47;;
22060;SDS011;11194;48.092;-1.382;2024-02-23T12:27:17;0.20;;;0.20;;
22060;SDS011;11194;48.092;-1.382;2024-02-23T12:29:52;0.63;;;0.63;;
22060;SDS011;11194;48.092;-1.382;2024-02-23T12:32:19;0.80;;;0.80;;
22060;SDS011;11194;48.092;-1.382;2024-02-23T12:34:45;0.80;;;0.80;;
22060;SDS011;11194;48.092;-1.382;2024-02-23T12:37:15;0.40;;;0.40;;
22060;SDS011;11194;48.092;-1.382;2024-02-23T12:39:42;0.40;;;0.40;;
22060;SDS011;11194;48.092;-1.382;2024-02-23T12:42:08;0.50;;;0.50;;
22060;SDS011;11194;48.092;-1.382;2024-02-23T12:44:34;0.20;;;0.20;;
22060;SDS011;11194;48.092;-1.382;2024-02-23T12:47:00;0.30;;;0.30;;
22060;SDS011;11194;48.092;-1.382;2024-02-23T12:49:26;0.20;;;0.20;;
22060;SDS011;11194;48.092;-1.382;2024-02-23T12:51:52;0.20;;;0.20;;
22060;SDS011;11194;48.092;-1.382;2024-02-23T12:54:18;0.35;;;0.35;;
22060;SDS011;11194;48.092;-1.382;2024-02-23T12:56:44;0.50;;;0.50;;
22060;SDS011;11194;48.092;-1.382;2024-02-23T12:59:10;0.50;;;0.50;;
22060;SDS011;11194;48.092;-1.382;2024-02-23T13:01:37;0.82;;;0.82;;
22060;SDS011;11194;48.092;-1.382;2024-02-23T13:04:04;0.40;;;0.40;;
22060;SDS011;11194;48.092;-1.382;2024-02-23T13:06:39;0.30;;;0.30;;
22060;SDS011;11194;48.092;-1.382;2024-02-23T13:09:06;0.20;;;0.20;;
22060;SDS011;11194;48.092;-1.382;2024-02-23T13:11:35;0.22;;;0.22;;
22060;SDS011;11194;48.092;-1.382;2024-02-23T13:14:03;0.30;;;0.30;;
22060;SDS011;11194;48.092;-1.382;2024-02-23T13:16:29;0.60;;;0.60;;
22060;SDS011;11194;48.092;-1.382;2024-02-23T13:18:55;0.30;;;0.30;;
22060;SDS011;11194;48.092;-1.382;2024-02-23T13:21:21;0.30;;;0.30;;
22060;SDS011;11194;48.092;-1.382;2024-02-23T13:23:49;0.20;;;0.20;;
22060;SDS011;11194;48.092;-1.382;2024-02-23T13:26:15;0.30;;;0.30;;
22060;SDS011;11194;48.092;-1.382;2024-02-23T13:28:41;0.32;;;0.32;;
22060;SDS011;11194;48.092;-1.382;2024-02-23T13:31:10;0.20;;;0.20;;
22060;SDS011;11194;48.092;-1.382;2024-02-23T13:33:36;0.30;;;0.30;;
22060;SDS011;11194;48.092;-1.382;2024-02-23T13:36:02;0.20;;;0.20;;
22060;SDS011;11194;48.092;-1.382;2024-02-23T13:38:28;0.30;;;0.30;;
22060;SDS011;11194;48.092;-1.382;2024-02-23T13:40:55;0.30;;;0.30;;
22060;SDS011;11194;48.092;-1.382;2024-02-23T13:43:21;0.20;;;0.20;;
22060;SDS011;11194;48.092;-1.382;2024-02-23T13:45:48;0.10;;;0.10;;
22060;SDS011;11194;48.092;-1.382;2024-02-23T13:48:16;0.10;;;0.10;;
22060;SDS011;11194;48.092;-1.382;2024-02-23T13:50:43;0.10;;;0.10;;
22060;SDS011;11194;48.092;-1.382;2024-02-23T13:53:10;0.10;;;0.10;;
22060;SDS011;11194;48.092;-1.382;2024-02-23T13:55:37;0.10;;;0.10;;
22060;SDS011;11194;48.092;-1.382;2024-02-23T13:58:03;0.00;;;0.00;;